sensor_id;sensor_type;location;lat;lon;timestamp;P1;durP1;ratioP1;P2;durP2;ratioP2
41233;SDS011;26968;42.686;23.352;2023-01-15T00:00:12;45.75;;;22.15;;
41233;SDS011;26968;42.686;23.352;2023-01-15T00:02:38;45.40;;;21.25;;
41233;SDS011;26968;42.686;23.352;2023-01-15T00:05:03;46.20;;;22.20;;
41233;SDS011;26968;42.686;23.352;2023-01-15T00:07:30;51.00;;;22.52;;
41233;SDS011;26968;42.686;23.352;2023-01-15T00:09:55;42.03;;;20.63;;
41233;SDS011;26968;42.686;23.352;2023-01-15T00:12:21;43.08;;;18.75;;
41233;SDS011;26968;42.686;23.352;2023-01-15T00:14:46;46.05;;;21.50;;
41233;SDS011;26968;42.686;23.352;2023-01-15T00:17:12;44.85;;;21.63;;
41233;SDS011;26968;42.686;23.352;2023-01-15T00:19:37;41.53;;;20.40;;
41233;SDS011;26968;42.686;23.352;2023-01-15T00:22:02;41.42;;;19.38;;
41233;SDS011;26968;42.686;23.352;2023-01-15T00:24:28;48.72;;;20.73;;
41233;SDS011;26968;42.686;23.352;2023-01-15T00:27:13;48.20;;;22.65;;
41233;SDS011;26968;42.686;23.352;2023-01-15T00:30:01;40.88;;;19.73;;
41233;SDS011;26968;42.686;23.352;2023-01-15T00:32:27;44.97;;;20.38;;
41233;SDS011;26968;42.686;23.352;2023-01-15T00:34:53;47.67;;;21.88;;
41233;SDS011;26968;42.686;23.352;2023-01-15T00:37:19;40.85;;;18.83;;
41233;SDS011;26968;42.686;23.352;2023-01-15T00:39:45;39.63;;;19.50;;
41233;SDS011;26968;42.686;23.352;2023-01-15T00:42:11;44.35;;;21.00;;
41233;SDS011;26968;42.686;23.352;2023-01-15T00:44:36;41.22;;;19.20;;
41233;SDS011;26968;42.686;23.352;2023-01-15T00:47:02;42.53;;;21.77;;
41233;SDS011;26968;42.686;23.352;2023-01-15T00:49:27;43.33;;;20.70;;
41233;SDS011;26968;42.686;23.352;2023-01-15T00:51:53;37.13;;;17.85;;
41233;SDS011;26968;42.686;23.352;2023-01-15T00:54:18;42.47;;;20.50;;
41233;SDS011;26968;42.686;23.352;2023-01-15T00:56:44;39.83;;;20.00;;
41233;SDS011;26968;42.686;23.352;2023-01-15T00:59:09;43.13;;;19.85;;
41233;SDS011;26968;42.686;23.352;2023-01-15T01:01:35;46.92;;;20.73;;
41233;SDS011;26968;42.686;23.352;2023-01-15T01:04:01;41.95;;;20.48;;
41233;SDS011;26968;42.686;23.352;2023-01-15T01:06:26;41.55;;;19.73;;
41233;SDS011;26968;42.686;23.352;2023-01-15T01:08:52;42.50;;;18.40;;
41233;SDS011;26968;42.686;23.352;2023-01-15T01:11:19;39.40;;;20.27;;
41233;SDS011;26968;42.686;23.352;2023-01-15T01:13:47;39.40;;;18.88;;
41233;SDS011;26968;42.686;23.352;2023-01-15T01:16:20;42.63;;;18.70;;
41233;SDS011;26968;42.686;23.352;2023-01-15T01:18:56;36.60;;;18.02;;
41233;SDS011;26968;42.686;23.352;2023-01-15T01:21:23;34.28;;;17.17;;
41233;SDS011;26968;42.686;23.352;2023-01-15T01:23:49;39.10;;;19.27;;
41233;SDS011;26968;42.686;23.352;2023-01-15T01:26:14;36.50;;;18.92;;
41233;SDS011;26968;42.686;23.352;2023-01-15T01:28:40;39.08;;;17.85;;
41233;SDS011;26968;42.686;23.352;2023-01-15T01:31:06;37.60;;;18.63;;
41233;SDS011;26968;42.686;23.352;2023-01-15T01:33:33;37.08;;;18.02;;
41233;SDS011;26968;42.686;23.352;2023-01-15T01:35:58;37.75;;;18.83;;
41233;SDS011;26968;42.686;23.352;2023-01-15T01:38:24;37.67;;;17.55;;
41233;SDS011;26968;42.686;23.352;2023-01-15T01:40:49;39.92;;;18.85;;
41233;SDS011;26968;42.686;23.352;2023-01-15T01:43:18;39.72;;;19.70;;
41233;SDS011;26968;42.686;23.352;2023-01-15T01:45:48;34.85;;;17.30;;
41233;SDS011;26968;42.686;23.352;2023-01-15T01:48:14;35.58;;;17.67;;
41233;SDS011;26968;42.686;23.352;2023-01-15T01:50:43;35.83;;;18.13;;
41233;SDS011;26968;42.686;23.352;2023-01-15T01:53:14;36.97;;;17.50;;
41233;SDS011;26968;42.686;23.352;2023-01-15T01:55:43;35.03;;;18.20;;
41233;SDS011;26968;42.686;23.352;2023-01-15T01:58:09;30.90;;;15.45;;
41233;SDS011;26968;42.686;23.352;2023-01-15T02:00:37;35.13;;;16.98;;
41233;SDS011;26968;42.686;23.352;2023-01-15T02:03:08;30.10;;;15.55;;
41233;SDS011;26968;42.686;23.352;2023-01-15T02:05:37;31.45;;;15.98;;
41233;SDS011;26968;42.686;23.352;2023-01-15T02:08:07;37.28;;;17.52;;
41233;SDS011;26968;42.686;23.352;2023-01-15T02:10:33;34.92;;;16.73;;
41233;SDS011;26968;42.686;23.352;2023-01-15T02:13:03;30.50;;;15.93;;
41233;SDS011;26968;42.686;23.352;2023-01-15T02:15:39;34.67;;;16.00;;
41233;SDS011;26968;42.686;23.352;2023-01-15T02:20:47;33.58;;;16.20;;
41233;SDS011;26968;42.686;23.352;2023-01-15T02:24:18;32.72;;;16.73;;
41233;SDS011;26968;42.686;23.352;2023-01-15T02:26:43;34.28;;;16.33;;
41233;SDS011;26968;42.686;23.352;2023-01-15T02:29:49;34.60;;;15.32;;
41233;SDS011;26968;42.686;23.352;2023-01-15T02:32:13;31.55;;;15.00;;
41233;SDS011;26968;42.686;23.352;2023-01-15T02:34:47;29.65;;;14.68;;
41233;SDS011;26968;42.686;23.352;2023-01-15T02:37:19;28.00;;;15.20;;
41233;SDS011;26968;42.686;23.352;2023-01-15T02:39:49;27.23;;;13.88;;
41233;SDS011;26968;42.686;23.352;2023-01-15T02:42:17;28.77;;;14.27;;
41233;SDS011;26968;42.686;23.352;2023-01-15T02:44:46;31.30;;;14.07;;
41233;SDS011;26968;42.686;23.352;2023-01-15T02:47:15;31.70;;;14.73;;
41233;SDS011;26968;42.686;23.352;2023-01-15T02:49:43;30.88;;;14.85;;
41233;SDS011;26968;42.686;23.352;2023-01-15T02:52:16;28.67;;;14.30;;
41233;SDS011;26968;42.686;23.352;2023-01-15T02:54:49;32.53;;;15.60;;
41233;SDS011;26968;42.686;23.352;2023-01-15T02:57:19;25.23;;;13.32;;
41233;SDS011;26968;42.686;23.352;2023-01-15T02:59:48;31.65;;;14.75;;
41233;SDS011;26968;42.686;23.352;2023-01-15T03:02:19;29.65;;;14.48;;
41233;SDS011;26968;42.686;23.352;2023-01-15T03:05:08;25.30;;;12.48;;
41233;SDS011;26968;42.686;23.352;2023-01-15T03:07:47;24.35;;;13.05;;
41233;SDS011;26968;42.686;23.352;2023-01-15T03:10:21;24.25;;;13.52;;
41233;SDS011;26968;42.686;23.352;2023-01-15T03:12:59;23.63;;;12.45;;
41233;SDS011;26968;42.686;23.352;2023-01-15T03:16:13;25.50;;;13.93;;
41233;SDS011;26968;42.686;23.352;2023-01-15T03:18:51;30.75;;;15.05;;
41233;SDS011;26968;42.686;23.352;2023-01-15T03:21:22;30.27;;;14.57;;
41233;SDS011;26968;42.686;23.352;2023-01-15T03:23:55;30.42;;;13.77;;
41233;SDS011;26968;42.686;23.352;2023-01-15T03:26:26;28.92;;;14.00;;
41233;SDS011;26968;42.686;23.352;2023-01-15T03:28:52;29.73;;;14.77;;
41233;SDS011;26968;42.686;23.352;2023-01-15T03:31:19;29.42;;;13.73;;
41233;SDS011;26968;42.686;23.352;2023-01-15T03:33:45;30.27;;;13.57;;
41233;SDS011;26968;42.686;23.352;2023-01-15T03:36:11;26.38;;;12.93;;
41233;SDS011;26968;42.686;23.352;2023-01-15T03:38:37;28.60;;;14.15;;
41233;SDS011;26968;42.686;23.352;2023-01-15T03:41:14;26.42;;;13.82;;
41233;SDS011;26968;42.686;23.352;2023-01-15T03:44:05;28.02;;;15.50;;
41233;SDS011;26968;42.686;23.352;2023-01-15T03:47:25;35.22;;;16.25;;
41233;SDS011;26968;42.686;23.352;2023-01-15T03:50:01;29.40;;;15.00;;
41233;SDS011;26968;42.686;23.352;2023-01-15T03:55:28;29.38;;;16.17;;
41233;SDS011;26968;42.686;23.352;2023-01-15T04:00:37;30.13;;;14.02;;
41233;SDS011;26968;42.686;23.352;2023-01-15T04:03:14;31.75;;;15.02;;
41233;SDS011;26968;42.686;23.352;2023-01-15T04:05:41;32.78;;;15.40;;
41233;SDS011;26968;42.686;23.352;2023-01-15T04:08:08;30.90;;;14.98;;
41233;SDS011;26968;42.686;23.352;2023-01-15T04:10:36;29.70;;;15.63;;
41233;SDS011;26968;42.686;23.352;2023-01-15T04:13:01;30.33;;;14.90;;
41233;SDS011;26968;42.686;23.352;2023-01-15T04:15:27;33.22;;;15.45;;
41233;SDS011;26968;42.686;23.352;2023-01-15T04:17:52;31.27;;;15.65;;
41233;SDS011;26968;42.686;23.352;2023-01-15T04:20:18;29.02;;;14.68;;
41233;SDS011;26968;42.686;23.352;2023-01-15T04:22:43;31.50;;;15.32;;
41233;SDS011;26968;42.686;23.352;2023-01-15T04:25:09;30.77;;;15.35;;
41233;SDS011;26968;42.686;23.352;2023-01-15T04:27:34;33.70;;;16.25;;
41233;SDS011;26968;42.686;23.352;2023-01-15T04:30:00;37.58;;;17.27;;
41233;SDS011;26968;42.686;23.352;2023-01-15T04:32:25;36.10;;;15.80;;
41233;SDS011;26968;42.686;23.352;2023-01-15T04:34:51;31.88;;;14.63;;
41233;SDS011;26968;42.686;23.352;2023-01-15T04:37:16;33.53;;;15.85;;
41233;SDS011;26968;42.686;23.352;2023-01-15T04:39:42;29.52;;;14.10;;
41233;SDS011;26968;42.686;23.352;2023-01-15T04:42:14;34.30;;;15.32;;
41233;SDS011;26968;42.686;23.352;2023-01-15T04:44:57;31.92;;;15.00;;
41233;SDS011;26968;42.686;23.352;2023-01-15T04:47:23;28.02;;;14.18;;
41233;SDS011;26968;42.686;23.352;2023-01-15T04:49:49;31.73;;;14.65;;
41233;SDS011;26968;42.686;23.352;2023-01-15T04:52:14;28.05;;;15.13;;
41233;SDS011;26968;42.686;23.352;2023-01-15T04:54:40;30.13;;;15.23;;
41233;SDS011;26968;42.686;23.352;2023-01-15T04:57:06;32.70;;;15.10;;
41233;SDS011;26968;42.686;23.352;2023-01-15T04:59:32;34.67;;;15.02;;
41233;SDS011;26968;42.686;23.352;2023-01-15T05:01:57;34.08;;;14.75;;
41233;SDS011;26968;42.686;23.352;2023-01-15T05:04:22;33.95;;;15.95;;
41233;SDS011;26968;42.686;23.352;2023-01-15T05:06:48;34.60;;;15.77;;
41233;SDS011;26968;42.686;23.352;2023-01-15T05:09:14;29.63;;;14.07;;
41233;SDS011;26968;42.686;23.352;2023-01-15T05:11:40;25.35;;;12.93;;
41233;SDS011;26968;42.686;23.352;2023-01-15T05:14:07;28.00;;;13.50;;
41233;SDS011;26968;42.686;23.352;2023-01-15T05:16:32;32.47;;;14.50;;
41233;SDS011;26968;42.686;23.352;2023-01-15T05:18:59;25.90;;;14.18;;
41233;SDS011;26968;42.686;23.352;2023-01-15T05:21:31;28.17;;;14.02;;
41233;SDS011;26968;42.686;23.352;2023-01-15T05:23:59;26.55;;;12.85;;
41233;SDS011;26968;42.686;23.352;2023-01-15T05:26:26;24.80;;;13.23;;
41233;SDS011;26968;42.686;23.352;2023-01-15T05:28:53;31.00;;;14.00;;
41233;SDS011;26968;42.686;23.352;2023-01-15T05:31:20;25.63;;;13.40;;
41233;SDS011;26968;42.686;23.352;2023-01-15T05:33:47;24.50;;;12.70;;
41233;SDS011;26968;42.686;23.352;2023-01-15T05:36:15;28.55;;;13.63;;
41233;SDS011;26968;42.686;23.352;2023-01-15T05:38:42;24.98;;;12.30;;
41233;SDS011;26968;42.686;23.352;2023-01-15T05:41:09;30.95;;;14.52;;
41233;SDS011;26968;42.686;23.352;2023-01-15T05:43:56;25.90;;;12.95;;
41233;SDS011;26968;42.686;23.352;2023-01-15T05:46:25;25.08;;;12.23;;
41233;SDS011;26968;42.686;23.352;2023-01-15T05:48:50;29.20;;;14.35;;
41233;SDS011;26968;42.686;23.352;2023-01-15T05:51:16;41.97;;;14.57;;
41233;SDS011;26968;42.686;23.352;2023-01-15T05:53:41;29.67;;;13.57;;
41233;SDS011;26968;42.686;23.352;2023-01-15T05:56:07;23.95;;;11.75;;
41233;SDS011;26968;42.686;23.352;2023-01-15T05:58:33;19.08;;;10.18;;
41233;SDS011;26968;42.686;23.352;2023-01-15T06:00:58;17.48;;;10.10;;
41233;SDS011;26968;42.686;23.352;2023-01-15T06:03:24;18.50;;;10.57;;
41233;SDS011;26968;42.686;23.352;2023-01-15T06:05:54;20.95;;;10.48;;
41233;SDS011;26968;42.686;23.352;2023-01-15T06:08:21;20.35;;;10.93;;
41233;SDS011;26968;42.686;23.352;2023-01-15T06:10:47;21.27;;;11.05;;
41233;SDS011;26968;42.686;23.352;2023-01-15T06:13:14;23.13;;;11.10;;
41233;SDS011;26968;42.686;23.352;2023-01-15T06:15:40;18.40;;;11.02;;
41233;SDS011;26968;42.686;23.352;2023-01-15T06:18:06;23.88;;;10.75;;
41233;SDS011;26968;42.686;23.352;2023-01-15T06:20:35;21.77;;;11.70;;
41233;SDS011;26968;42.686;23.352;2023-01-15T06:23:01;22.10;;;11.27;;
41233;SDS011;26968;42.686;23.352;2023-01-15T06:25:26;27.80;;;11.65;;
41233;SDS011;26968;42.686;23.352;2023-01-15T06:27:52;26.15;;;11.20;;
41233;SDS011;26968;42.686;23.352;2023-01-15T06:30:17;23.75;;;10.98;;
41233;SDS011;26968;42.686;23.352;2023-01-15T06:32:43;30.50;;;12.65;;
41233;SDS011;26968;42.686;23.352;2023-01-15T06:35:09;25.10;;;12.35;;
41233;SDS011;26968;42.686;23.352;2023-01-15T06:37:34;32.85;;;12.45;;
41233;SDS011;26968;42.686;23.352;2023-01-15T06:40:00;25.25;;;12.38;;
41233;SDS011;26968;42.686;23.352;2023-01-15T06:42:25;29.17;;;12.48;;
41233;SDS011;26968;42.686;23.352;2023-01-15T06:45:10;24.83;;;11.85;;
41233;SDS011;26968;42.686;23.352;2023-01-15T06:47:54;22.48;;;11.55;;
41233;SDS011;26968;42.686;23.352;2023-01-15T06:50:21;23.23;;;11.88;;
41233;SDS011;26968;42.686;23.352;2023-01-15T06:52:47;32.60;;;12.63;;
41233;SDS011;26968;42.686;23.352;2023-01-15T06:55:12;28.25;;;12.60;;
41233;SDS011;26968;42.686;23.352;2023-01-15T06:57:38;28.05;;;12.52;;
41233;SDS011;26968;42.686;23.352;2023-01-15T07:00:05;28.83;;;13.88;;
41233;SDS011;26968;42.686;23.352;2023-01-15T07:02:34;27.08;;;13.25;;
41233;SDS011;26968;42.686;23.352;2023-01-15T07:04:59;25.45;;;12.60;;
41233;SDS011;26968;42.686;23.352;2023-01-15T07:07:26;30.08;;;12.50;;
41233;SDS011;26968;42.686;23.352;2023-01-15T07:09:52;36.42;;;13.98;;
41233;SDS011;26968;42.686;23.352;2023-01-15T07:12:17;32.33;;;13.82;;
41233;SDS011;26968;42.686;23.352;2023-01-15T07:14:43;41.05;;;15.65;;
41233;SDS011;26968;42.686;23.352;2023-01-15T07:17:09;43.97;;;22.02;;
41233;SDS011;26968;42.686;23.352;2023-01-15T07:19:34;53.97;;;25.02;;
41233;SDS011;26968;42.686;23.352;2023-01-15T07:22:00;65.80;;;26.40;;
41233;SDS011;26968;42.686;23.352;2023-01-15T07:24:25;55.40;;;27.55;;
41233;SDS011;26968;42.686;23.352;2023-01-15T07:26:51;62.60;;;25.50;;
41233;SDS011;26968;42.686;23.352;2023-01-15T07:29:16;52.10;;;23.95;;
41233;SDS011;26968;42.686;23.352;2023-01-15T07:31:42;57.42;;;24.77;;
41233;SDS011;26968;42.686;23.352;2023-01-15T07:34:07;47.22;;;23.48;;
41233;SDS011;26968;42.686;23.352;2023-01-15T07:36:33;55.60;;;24.33;;
41233;SDS011;26968;42.686;23.352;2023-01-15T07:38:58;43.92;;;23.30;;
41233;SDS011;26968;42.686;23.352;2023-01-15T07:41:24;45.33;;;22.17;;
41233;SDS011;26968;42.686;23.352;2023-01-15T07:44:11;48.08;;;21.55;;
41233;SDS011;26968;42.686;23.352;2023-01-15T07:46:55;50.90;;;24.08;;
41233;SDS011;26968;42.686;23.352;2023-01-15T07:49:41;42.33;;;20.88;;
41233;SDS011;26968;42.686;23.352;2023-01-15T07:52:14;49.75;;;21.55;;
41233;SDS011;26968;42.686;23.352;2023-01-15T07:54:41;48.80;;;22.35;;
41233;SDS011;26968;42.686;23.352;2023-01-15T07:57:07;45.95;;;21.00;;
41233;SDS011;26968;42.686;23.352;2023-01-15T07:59:34;45.35;;;20.30;;
41233;SDS011;26968;42.686;23.352;2023-01-15T08:01:59;41.58;;;20.83;;
41233;SDS011;26968;42.686;23.352;2023-01-15T08:04:25;40.92;;;19.83;;
41233;SDS011;26968;42.686;23.352;2023-01-15T08:06:50;48.83;;;22.13;;
41233;SDS011;26968;42.686;23.352;2023-01-15T08:09:16;50.58;;;21.45;;
41233;SDS011;26968;42.686;23.352;2023-01-15T08:11:41;46.53;;;19.65;;
41233;SDS011;26968;42.686;23.352;2023-01-15T08:14:25;39.70;;;18.65;;
41233;SDS011;26968;42.686;23.352;2023-01-15T08:17:09;37.10;;;19.67;;
41233;SDS011;26968;42.686;23.352;2023-01-15T08:19:34;43.70;;;19.88;;
41233;SDS011;26968;42.686;23.352;2023-01-15T08:22:00;41.50;;;21.30;;
41233;SDS011;26968;42.686;23.352;2023-01-15T08:24:25;39.95;;;20.55;;
41233;SDS011;26968;42.686;23.352;2023-01-15T08:26:52;40.60;;;19.25;;
41233;SDS011;26968;42.686;23.352;2023-01-15T08:29:18;46.22;;;19.98;;
41233;SDS011;26968;42.686;23.352;2023-01-15T08:31:44;46.47;;;20.30;;
41233;SDS011;26968;42.686;23.352;2023-01-15T08:34:09;41.10;;;19.23;;
41233;SDS011;26968;42.686;23.352;2023-01-15T08:36:35;42.28;;;20.75;;
41233;SDS011;26968;42.686;23.352;2023-01-15T08:39:00;36.28;;;18.83;;
41233;SDS011;26968;42.686;23.352;2023-01-15T08:41:26;40.55;;;20.40;;
41233;SDS011;26968;42.686;23.352;2023-01-15T08:43:51;44.65;;;21.30;;
41233;SDS011;26968;42.686;23.352;2023-01-15T08:46:17;39.13;;;21.15;;
41233;SDS011;26968;42.686;23.352;2023-01-15T08:48:42;47.28;;;24.33;;
41233;SDS011;26968;42.686;23.352;2023-01-15T08:51:09;54.75;;;25.00;;
41233;SDS011;26968;42.686;23.352;2023-01-15T08:53:36;59.80;;;26.58;;
41233;SDS011;26968;42.686;23.352;2023-01-15T08:56:02;65.25;;;26.92;;
41233;SDS011;26968;42.686;23.352;2023-01-15T08:58:28;49.72;;;24.80;;
41233;SDS011;26968;42.686;23.352;2023-01-15T09:00:55;48.72;;;23.48;;
41233;SDS011;26968;42.686;23.352;2023-01-15T09:03:21;47.50;;;24.92;;
41233;SDS011;26968;42.686;23.352;2023-01-15T09:05:46;48.85;;;24.30;;
41233;SDS011;26968;42.686;23.352;2023-01-15T09:08:12;50.30;;;24.25;;
41233;SDS011;26968;42.686;23.352;2023-01-15T09:10:38;56.97;;;25.77;;
41233;SDS011;26968;42.686;23.352;2023-01-15T09:13:03;49.78;;;24.63;;
41233;SDS011;26968;42.686;23.352;2023-01-15T09:15:29;47.47;;;24.88;;
41233;SDS011;26968;42.686;23.352;2023-01-15T09:17:56;50.67;;;24.40;;
41233;SDS011;26968;42.686;23.352;2023-01-15T09:20:22;47.75;;;24.67;;
41233;SDS011;26968;42.686;23.352;2023-01-15T09:22:49;44.75;;;23.33;;
41233;SDS011;26968;42.686;23.352;2023-01-15T09:25:15;47.10;;;23.75;;
41233;SDS011;26968;42.686;23.352;2023-01-15T09:27:43;45.10;;;23.60;;
41233;SDS011;26968;42.686;23.352;2023-01-15T09:30:29;48.03;;;24.77;;
41233;SDS011;26968;42.686;23.352;2023-01-15T09:32:54;45.15;;;23.13;;
41233;SDS011;26968;42.686;23.352;2023-01-15T09:35:20;49.25;;;24.73;;
41233;SDS011;26968;42.686;23.352;2023-01-15T09:37:52;48.08;;;24.88;;
41233;SDS011;26968;42.686;23.352;2023-01-15T09:46:11;45.67;;;20.35;;
41233;SDS011;26968;42.686;23.352;2023-01-15T09:54:26;39.72;;;21.17;;
41233;SDS011;26968;42.686;23.352;2023-01-15T09:57:15;35.88;;;19.60;;
41233;SDS011;26968;42.686;23.352;2023-01-15T09:59:44;43.70;;;21.52;;
41233;SDS011;26968;42.686;23.352;2023-01-15T10:02:22;47.60;;;21.38;;
41233;SDS011;26968;42.686;23.352;2023-01-15T10:05:03;39.00;;;19.90;;
41233;SDS011;26968;42.686;23.352;2023-01-15T10:10:26;40.97;;;20.25;;
41233;SDS011;26968;42.686;23.352;2023-01-15T10:12:59;43.28;;;22.13;;
41233;SDS011;26968;42.686;23.352;2023-01-15T10:15:37;40.63;;;18.77;;
41233;SDS011;26968;42.686;23.352;2023-01-15T10:18:06;28.00;;;15.73;;
41233;SDS011;26968;42.686;23.352;2023-01-15T10:23:36;32.67;;;15.65;;
41233;SDS011;26968;42.686;23.352;2023-01-15T10:26:07;31.75;;;16.98;;
41233;SDS011;26968;42.686;23.352;2023-01-15T10:31:26;23.70;;;11.90;;
41233;SDS011;26968;42.686;23.352;2023-01-15T10:37:28;37.22;;;17.17;;
41233;SDS011;26968;42.686;23.352;2023-01-15T10:45:05;37.03;;;18.30;;
41233;SDS011;26968;42.686;23.352;2023-01-15T10:47:36;35.75;;;18.00;;
41233;SDS011;26968;42.686;23.352;2023-01-15T10:50:12;39.15;;;20.15;;
41233;SDS011;26968;42.686;23.352;2023-01-15T10:52:41;34.00;;;19.13;;
41233;SDS011;26968;42.686;23.352;2023-01-15T10:57:54;39.33;;;20.23;;
41233;SDS011;26968;42.686;23.352;2023-01-15T11:00:28;32.75;;;17.60;;
41233;SDS011;26968;42.686;23.352;2023-01-15T11:05:35;32.42;;;17.95;;
41233;SDS011;26968;42.686;23.352;2023-01-15T11:08:04;33.03;;;16.98;;
41233;SDS011;26968;42.686;23.352;2023-01-15T11:10:32;32.97;;;16.77;;
41233;SDS011;26968;42.686;23.352;2023-01-15T11:12:59;29.88;;;16.38;;
41233;SDS011;26968;42.686;23.352;2023-01-15T11:15:54;25.55;;;14.82;;
41233;SDS011;26968;42.686;23.352;2023-01-15T11:18:39;29.45;;;15.65;;
41233;SDS011;26968;42.686;23.352;2023-01-15T11:21:45;26.23;;;14.13;;
41233;SDS011;26968;42.686;23.352;2023-01-15T11:24:14;30.08;;;15.20;;
41233;SDS011;26968;42.686;23.352;2023-01-15T11:26:41;28.92;;;14.35;;
41233;SDS011;26968;42.686;23.352;2023-01-15T11:29:20;25.73;;;13.93;;
41233;SDS011;26968;42.686;23.352;2023-01-15T11:31:54;26.87;;;14.07;;
41233;SDS011;26968;42.686;23.352;2023-01-15T11:34:19;23.13;;;12.93;;
41233;SDS011;26968;42.686;23.352;2023-01-15T11:36:46;25.10;;;12.23;;
41233;SDS011;26968;42.686;23.352;2023-01-15T11:41:58;21.50;;;12.88;;
41233;SDS011;26968;42.686;23.352;2023-01-15T11:44:54;23.25;;;12.75;;
41233;SDS011;26968;42.686;23.352;2023-01-15T11:47:52;24.90;;;12.02;;
41233;SDS011;26968;42.686;23.352;2023-01-15T11:53:20;19.50;;;10.73;;
41233;SDS011;26968;42.686;23.352;2023-01-15T11:55:54;18.02;;;10.40;;
41233;SDS011;26968;42.686;23.352;2023-01-15T11:58:31;21.58;;;12.05;;
41233;SDS011;26968;42.686;23.352;2023-01-15T12:00:58;19.50;;;11.85;;
41233;SDS011;26968;42.686;23.352;2023-01-15T12:03:26;18.70;;;11.65;;
41233;SDS011;26968;42.686;23.352;2023-01-15T12:05:58;18.90;;;11.35;;
41233;SDS011;26968;42.686;23.352;2023-01-15T12:13:57;19.13;;;11.13;;
41233;SDS011;26968;42.686;23.352;2023-01-15T12:16:57;17.45;;;9.80;;
41233;SDS011;26968;42.686;23.352;2023-01-15T12:20:16;19.77;;;11.88;;
41233;SDS011;26968;42.686;23.352;2023-01-15T12:31:22;13.85;;;8.75;;
41233;SDS011;26968;42.686;23.352;2023-01-15T12:34:04;14.65;;;9.00;;
41233;SDS011;26968;42.686;23.352;2023-01-15T12:36:56;14.60;;;9.18;;
41233;SDS011;26968;42.686;23.352;2023-01-15T12:39:32;15.23;;;8.82;;
41233;SDS011;26968;42.686;23.352;2023-01-15T12:42:08;16.08;;;8.98;;
41233;SDS011;26968;42.686;23.352;2023-01-15T12:45:19;13.90;;;8.60;;
41233;SDS011;26968;42.686;23.352;2023-01-15T12:50:38;14.10;;;9.15;;
41233;SDS011;26968;42.686;23.352;2023-01-15T12:53:17;16.02;;;9.82;;
41233;SDS011;26968;42.686;23.352;2023-01-15T12:55:50;14.55;;;9.90;;
41233;SDS011;26968;42.686;23.352;2023-01-15T13:00:50;17.13;;;8.95;;
41233;SDS011;26968;42.686;23.352;2023-01-15T13:03:29;14.45;;;9.07;;
41233;SDS011;26968;42.686;23.352;2023-01-15T13:06:18;16.10;;;9.63;;
41233;SDS011;26968;42.686;23.352;2023-01-15T13:08:54;15.70;;;9.75;;
41233;SDS011;26968;42.686;23.352;2023-01-15T13:11:20;16.35;;;10.18;;
41233;SDS011;26968;42.686;23.352;2023-01-15T13:13:46;11.85;;;8.02;;
41233;SDS011;26968;42.686;23.352;2023-01-15T13:24:15;16.00;;;9.90;;
41233;SDS011;26968;42.686;23.352;2023-01-15T13:29:52;21.17;;;9.55;;
41233;SDS011;26968;42.686;23.352;2023-01-15T13:32:25;14.07;;;9.15;;
41233;SDS011;26968;42.686;23.352;2023-01-15T13:35:25;15.93;;;9.80;;
41233;SDS011;26968;42.686;23.352;2023-01-15T13:37:54;16.58;;;9.50;;
41233;SDS011;26968;42.686;23.352;2023-01-15T13:40:28;22.35;;;11.00;;
41233;SDS011;26968;42.686;23.352;2023-01-15T13:42:58;17.08;;;9.80;;
41233;SDS011;26968;42.686;23.352;2023-01-15T13:45:38;17.08;;;10.20;;
41233;SDS011;26968;42.686;23.352;2023-01-15T13:48:16;19.73;;;10.32;;
41233;SDS011;26968;42.686;23.352;2023-01-15T13:50:52;19.35;;;11.38;;
41233;SDS011;26968;42.686;23.352;2023-01-15T13:53:29;21.83;;;12.13;;
41233;SDS011;26968;42.686;23.352;2023-01-15T13:58:32;18.10;;;11.00;;
41233;SDS011;26968;42.686;23.352;2023-01-15T14:01:41;17.50;;;10.98;;
41233;SDS011;26968;42.686;23.352;2023-01-15T14:03:58;18.35;;;11.32;;
41233;SDS011;26968;42.686;23.352;2023-01-15T14:06:37;21.08;;;11.82;;
41233;SDS011;26968;42.686;23.352;2023-01-15T14:09:13;22.48;;;11.95;;
41233;SDS011;26968;42.686;23.352;2023-01-15T14:11:43;21.80;;;12.25;;
41233;SDS011;26968;42.686;23.352;2023-01-15T14:14:30;19.83;;;11.75;;
41233;SDS011;26968;42.686;23.352;2023-01-15T14:35:43;18.48;;;11.57;;
41233;SDS011;26968;42.686;23.352;2023-01-15T14:38:17;18.83;;;11.48;;
41233;SDS011;26968;42.686;23.352;2023-01-15T14:40:56;17.20;;;10.57;;
41233;SDS011;26968;42.686;23.352;2023-01-15T14:43:25;19.50;;;11.40;;
41233;SDS011;26968;42.686;23.352;2023-01-15T14:46:04;20.80;;;11.77;;
41233;SDS011;26968;42.686;23.352;2023-01-15T14:48:37;21.70;;;11.80;;
41233;SDS011;26968;42.686;23.352;2023-01-15T14:51:23;22.98;;;12.90;;
41233;SDS011;26968;42.686;23.352;2023-01-15T14:54:06;26.05;;;12.75;;
41233;SDS011;26968;42.686;23.352;2023-01-15T14:56:36;25.55;;;13.93;;
41233;SDS011;26968;42.686;23.352;2023-01-15T14:59:13;26.23;;;13.73;;
41233;SDS011;26968;42.686;23.352;2023-01-15T15:07:25;28.25;;;14.25;;
41233;SDS011;26968;42.686;23.352;2023-01-15T15:10:11;28.27;;;14.32;;
41233;SDS011;26968;42.686;23.352;2023-01-15T15:12:47;27.40;;;13.70;;
41233;SDS011;26968;42.686;23.352;2023-01-15T15:15:20;27.60;;;14.57;;
41233;SDS011;26968;42.686;23.352;2023-01-15T15:20:50;29.30;;;15.13;;
41233;SDS011;26968;42.686;23.352;2023-01-15T15:23:27;28.60;;;15.52;;
41233;SDS011;26968;42.686;23.352;2023-01-15T15:26:02;30.75;;;17.13;;
41233;SDS011;26968;42.686;23.352;2023-01-15T15:28:31;31.25;;;15.70;;
41233;SDS011;26968;42.686;23.352;2023-01-15T15:30:57;32.83;;;16.67;;
41233;SDS011;26968;42.686;23.352;2023-01-15T15:33:26;33.90;;;17.75;;
41233;SDS011;26968;42.686;23.352;2023-01-15T15:36:00;30.30;;;16.98;;
41233;SDS011;26968;42.686;23.352;2023-01-15T15:38:26;35.22;;;18.00;;
41233;SDS011;26968;42.686;23.352;2023-01-15T15:40:59;37.35;;;18.60;;
41233;SDS011;26968;42.686;23.352;2023-01-15T15:43:33;45.42;;;19.77;;
41233;SDS011;26968;42.686;23.352;2023-01-15T15:46:28;36.58;;;19.90;;
41233;SDS011;26968;42.686;23.352;2023-01-15T15:49:15;37.03;;;19.55;;
41233;SDS011;26968;42.686;23.352;2023-01-15T15:51:51;39.63;;;19.80;;
41233;SDS011;26968;42.686;23.352;2023-01-15T15:54:22;40.42;;;20.00;;
41233;SDS011;26968;42.686;23.352;2023-01-15T16:04:49;46.63;;;21.25;;
41233;SDS011;26968;42.686;23.352;2023-01-15T16:07:20;43.45;;;21.65;;
41233;SDS011;26968;42.686;23.352;2023-01-15T16:09:52;45.97;;;24.10;;
41233;SDS011;26968;42.686;23.352;2023-01-15T16:12:21;45.17;;;21.70;;
41233;SDS011;26968;42.686;23.352;2023-01-15T16:14:48;49.95;;;23.33;;
41233;SDS011;26968;42.686;23.352;2023-01-15T16:17:15;45.42;;;24.40;;
41233;SDS011;26968;42.686;23.352;2023-01-15T16:19:41;49.20;;;24.25;;
41233;SDS011;26968;42.686;23.352;2023-01-15T16:22:07;42.22;;;22.23;;
41233;SDS011;26968;42.686;23.352;2023-01-15T16:24:38;45.63;;;24.45;;
41233;SDS011;26968;42.686;23.352;2023-01-15T16:27:04;45.20;;;24.17;;